sensor_id;sensor_type;location;lat;lon;timestamp;P1;durP1;ratioP1;P2;durP2;ratioP2
7025;SDS011;3554;42.132;24.786;2023-05-10T00:01:14;4.23;;;3.97;;
7025;SDS011;3554;42.132;24.786;2023-05-10T00:03:40;4.53;;;4.20;;
7025;SDS011;3554;42.132;24.786;2023-05-10T00:06:07;9.20;;;4.77;;
7025;SDS011;3554;42.132;24.786;2023-05-10T00:08:34;5.20;;;4.53;;
7025;SDS011;3554;42.132;24.786;2023-05-10T00:11:01;5.03;;;4.60;;
7025;SDS011;3554;42.132;24.786;2023-05-10T00:13:29;6.67;;;4.17;;
7025;SDS011;3554;42.132;24.786;2023-05-10T00:15:56;5.03;;;4.63;;
7025;SDS011;3554;42.132;24.786;2023-05-10T00:18:23;5.10;;;4.60;;
7025;SDS011;3554;42.132;24.786;2023-05-10T00:20:49;5.83;;;4.87;;
7025;SDS011;3554;42.132;24.786;2023-05-10T00:23:16;6.07;;;5.57;;
7025;SDS011;3554;42.132;24.786;2023-05-10T00:25:43;5.20;;;4.77;;
7025;SDS011;3554;42.132;24.786;2023-05-10T00:28:10;5.33;;;4.83;;
7025;SDS011;3554;42.132;24.786;2023-05-10T00:30:38;4.90;;;4.60;;
7025;SDS011;3554;42.132;24.786;2023-05-10T00:33:05;5.03;;;4.73;;
7025;SDS011;3554;42.132;24.786;2023-05-10T00:35:31;9.67;;;4.87;;
7025;SDS011;3554;42.132;24.786;2023-05-10T00:37:59;7.00;;;4.90;;
7025;SDS011;3554;42.132;24.786;2023-05-10T00:40:25;5.67;;;4.93;;
7025;SDS011;3554;42.132;24.786;2023-05-10T00:42:53;12.77;;;5.33;;
7025;SDS011;3554;42.132;24.786;2023-05-10T00:45:20;5.13;;;4.57;;
7025;SDS011;3554;42.132;24.786;2023-05-10T00:47:48;5.27;;;4.97;;
7025;SDS011;3554;42.132;24.786;2023-05-10T00:50:17;5.93;;;5.50;;
7025;SDS011;3554;42.132;24.786;2023-05-10T00:52:44;5.57;;;5.20;;
7025;SDS011;3554;42.132;24.786;2023-05-10T00:55:11;8.60;;;5.73;;
7025;SDS011;3554;42.132;24.786;2023-05-10T00:57:38;5.63;;;5.23;;
7025;SDS011;3554;42.132;24.786;2023-05-10T01:00:05;7.33;;;5.43;;
7025;SDS011;3554;42.132;24.786;2023-05-10T01:02:33;5.70;;;5.20;;
7025;SDS011;3554;42.132;24.786;2023-05-10T01:05:02;6.60;;;5.33;;
7025;SDS011;3554;42.132;24.786;2023-05-10T01:07:30;5.83;;;5.43;;
7025;SDS011;3554;42.132;24.786;2023-05-10T01:09:57;7.23;;;6.63;;
7025;SDS011;3554;42.132;24.786;2023-05-10T01:12:24;5.97;;;5.43;;
7025;SDS011;3554;42.132;24.786;2023-05-10T01:14:51;8.00;;;6.43;;
7025;SDS011;3554;42.132;24.786;2023-05-10T01:17:18;5.93;;;5.57;;
7025;SDS011;3554;42.132;24.786;2023-05-10T01:19:45;8.47;;;6.93;;
7025;SDS011;3554;42.132;24.786;2023-05-10T01:22:18;6.57;;;6.17;;
7025;SDS011;3554;42.132;24.786;2023-05-10T01:25:09;7.33;;;6.83;;
7025;SDS011;3554;42.132;24.786;2023-05-10T01:31:04;10.17;;;7.60;;
7025;SDS011;3554;42.132;24.786;2023-05-10T01:33:45;7.83;;;7.20;;
7025;SDS011;3554;42.132;24.786;2023-05-10T01:36:16;8.50;;;7.67;;
7025;SDS011;3554;42.132;24.786;2023-05-10T01:38:51;8.17;;;7.60;;
7025;SDS011;3554;42.132;24.786;2023-05-10T01:41:24;12.87;;;9.17;;
7025;SDS011;3554;42.132;24.786;2023-05-10T01:43:59;10.30;;;8.23;;
7025;SDS011;3554;42.132;24.786;2023-05-10T01:46:31;10.33;;;9.63;;
7025;SDS011;3554;42.132;24.786;2023-05-10T01:49:03;10.80;;;9.83;;
7025;SDS011;3554;42.132;24.786;2023-05-10T01:51:39;14.17;;;9.70;;
7025;SDS011;3554;42.132;24.786;2023-05-10T01:54:11;10.17;;;9.47;;
7025;SDS011;3554;42.132;24.786;2023-05-10T01:56:40;9.93;;;8.97;;
7025;SDS011;3554;42.132;24.786;2023-05-10T01:59:11;9.83;;;8.73;;
7025;SDS011;3554;42.132;24.786;2023-05-10T02:01:41;8.80;;;8.03;;
7025;SDS011;3554;42.132;24.786;2023-05-10T02:04:10;10.53;;;9.70;;
7025;SDS011;3554;42.132;24.786;2023-05-10T02:06:42;9.23;;;8.60;;
7025;SDS011;3554;42.132;24.786;2023-05-10T02:09:09;10.20;;;8.87;;
7025;SDS011;3554;42.132;24.786;2023-05-10T02:11:37;8.67;;;8.07;;
7025;SDS011;3554;42.132;24.786;2023-05-10T02:14:05;13.37;;;9.03;;
7025;SDS011;3554;42.132;24.786;2023-05-10T02:16:35;9.10;;;8.03;;
7025;SDS011;3554;42.132;24.786;2023-05-10T02:19:02;14.83;;;8.77;;
7025;SDS011;3554;42.132;24.786;2023-05-10T02:21:31;8.70;;;8.10;;
7025;SDS011;3554;42.132;24.786;2023-05-10T02:24:00;8.80;;;8.10;;
7025;SDS011;3554;42.132;24.786;2023-05-10T02:26:29;9.37;;;8.57;;
7025;SDS011;3554;42.132;24.786;2023-05-10T02:29:00;7.57;;;7.13;;
7025;SDS011;3554;42.132;24.786;2023-05-10T02:31:29;10.70;;;7.23;;
7025;SDS011;3554;42.132;24.786;2023-05-10T02:33:57;8.07;;;7.40;;
7025;SDS011;3554;42.132;24.786;2023-05-10T02:36:26;8.40;;;7.57;;
7025;SDS011;3554;42.132;24.786;2023-05-10T02:38:55;9.37;;;8.60;;
7025;SDS011;3554;42.132;24.786;2023-05-10T02:41:23;9.17;;;8.47;;
7025;SDS011;3554;42.132;24.786;2023-05-10T02:43:52;10.20;;;8.60;;
7025;SDS011;3554;42.132;24.786;2023-05-10T02:46:23;9.07;;;8.10;;
7025;SDS011;3554;42.132;24.786;2023-05-10T02:48:50;8.77;;;8.10;;
7025;SDS011;3554;42.132;24.786;2023-05-10T02:51:18;9.83;;;8.97;;
7025;SDS011;3554;42.132;24.786;2023-05-10T02:53:47;12.63;;;8.60;;
7025;SDS011;3554;42.132;24.786;2023-05-10T02:56:23;9.10;;;8.30;;
7025;SDS011;3554;42.132;24.786;2023-05-10T02:58:55;9.03;;;8.13;;
7025;SDS011;3554;42.132;24.786;2023-05-10T03:01:22;8.43;;;7.67;;
7025;SDS011;3554;42.132;24.786;2023-05-10T03:03:49;8.80;;;7.90;;
7025;SDS011;3554;42.132;24.786;2023-05-10T03:06:16;9.33;;;8.53;;
7025;SDS011;3554;42.132;24.786;2023-05-10T03:08:43;9.83;;;8.80;;
7025;SDS011;3554;42.132;24.786;2023-05-10T03:11:23;8.60;;;8.00;;
7025;SDS011;3554;42.132;24.786;2023-05-10T03:14:02;7.70;;;7.10;;
7025;SDS011;3554;42.132;24.786;2023-05-10T03:16:41;8.67;;;7.87;;
7025;SDS011;3554;42.132;24.786;2023-05-10T03:19:13;7.97;;;7.37;;
7025;SDS011;3554;42.132;24.786;2023-05-10T03:21:49;9.10;;;8.10;;
7025;SDS011;3554;42.132;24.786;2023-05-10T03:24:18;8.60;;;7.73;;
7025;SDS011;3554;42.132;24.786;2023-05-10T03:26:49;8.77;;;7.97;;
7025;SDS011;3554;42.132;24.786;2023-05-10T03:29:20;8.10;;;7.43;;
7025;SDS011;3554;42.132;24.786;2023-05-10T03:31:48;8.23;;;7.43;;
7025;SDS011;3554;42.132;24.786;2023-05-10T03:34:15;9.53;;;8.63;;
7025;SDS011;3554;42.132;24.786;2023-05-10T03:36:42;6.30;;;5.93;;
7025;SDS011;3554;42.132;24.786;2023-05-10T03:39:09;7.97;;;7.27;;
7025;SDS011;3554;42.132;24.786;2023-05-10T03:41:36;8.10;;;7.60;;
7025;SDS011;3554;42.132;24.786;2023-05-10T03:44:04;11.90;;;7.50;;
7025;SDS011;3554;42.132;24.786;2023-05-10T03:46:31;8.17;;;7.37;;
7025;SDS011;3554;42.132;24.786;2023-05-10T03:48:57;11.50;;;7.83;;
7025;SDS011;3554;42.132;24.786;2023-05-10T03:51:24;8.03;;;7.40;;
7025;SDS011;3554;42.132;24.786;2023-05-10T03:53:53;10.30;;;7.83;;
7025;SDS011;3554;42.132;24.786;2023-05-10T03:56:19;8.20;;;7.67;;
7025;SDS011;3554;42.132;24.786;2023-05-10T03:58:47;9.33;;;7.80;;
7025;SDS011;3554;42.132;24.786;2023-05-10T04:01:15;8.50;;;7.63;;
7025;SDS011;3554;42.132;24.786;2023-05-10T04:03:42;12.27;;;7.60;;
7025;SDS011;3554;42.132;24.786;2023-05-10T04:06:08;7.63;;;7.10;;
7025;SDS011;3554;42.132;24.786;2023-05-10T04:08:36;7.47;;;6.97;;
7025;SDS011;3554;42.132;24.786;2023-05-10T04:11:06;8.37;;;7.60;;
7025;SDS011;3554;42.132;24.786;2023-05-10T04:13:34;7.60;;;6.90;;
7025;SDS011;3554;42.132;24.786;2023-05-10T04:16:00;7.83;;;7.23;;
7025;SDS011;3554;42.132;24.786;2023-05-10T04:18:29;10.20;;;8.00;;
7025;SDS011;3554;42.132;24.786;2023-05-10T04:20:56;7.50;;;6.77;;
7025;SDS011;3554;42.132;24.786;2023-05-10T04:23:23;7.80;;;7.03;;
7025;SDS011;3554;42.132;24.786;2023-05-10T04:25:49;8.13;;;7.20;;
7025;SDS011;3554;42.132;24.786;2023-05-10T04:28:16;8.33;;;7.53;;
7025;SDS011;3554;42.132;24.786;2023-05-10T04:30:43;7.60;;;7.00;;
7025;SDS011;3554;42.132;24.786;2023-05-10T04:33:10;7.37;;;6.87;;
7025;SDS011;3554;42.132;24.786;2023-05-10T04:35:38;8.97;;;7.10;;
7025;SDS011;3554;42.132;24.786;2023-05-10T04:38:05;7.97;;;7.40;;
7025;SDS011;3554;42.132;24.786;2023-05-10T04:40:31;7.30;;;6.77;;
7025;SDS011;3554;42.132;24.786;2023-05-10T04:42:59;8.83;;;7.90;;
7025;SDS011;3554;42.132;24.786;2023-05-10T04:45:26;9.37;;;7.67;;
7025;SDS011;3554;42.132;24.786;2023-05-10T04:47:52;8.30;;;7.53;;
7025;SDS011;3554;42.132;24.786;2023-05-10T04:50:19;7.43;;;6.70;;
7025;SDS011;3554;42.132;24.786;2023-05-10T04:52:47;8.10;;;7.43;;
7025;SDS011;3554;42.132;24.786;2023-05-10T04:55:14;8.40;;;6.97;;
7025;SDS011;3554;42.132;24.786;2023-05-10T04:57:41;6.57;;;6.17;;
7025;SDS011;3554;42.132;24.786;2023-05-10T05:00:08;7.00;;;6.60;;
7025;SDS011;3554;42.132;24.786;2023-05-10T05:02:35;6.97;;;6.37;;
7025;SDS011;3554;42.132;24.786;2023-05-10T05:05:02;7.27;;;6.57;;
7025;SDS011;3554;42.132;24.786;2023-05-10T05:07:29;6.57;;;6.17;;
7025;SDS011;3554;42.132;24.786;2023-05-10T05:09:58;6.53;;;5.93;;
7025;SDS011;3554;42.132;24.786;2023-05-10T05:12:24;6.97;;;6.43;;
7025;SDS011;3554;42.132;24.786;2023-05-10T05:14:51;6.50;;;6.00;;
7025;SDS011;3554;42.132;24.786;2023-05-10T05:17:18;8.53;;;6.90;;
7025;SDS011;3554;42.132;24.786;2023-05-10T05:19:45;6.43;;;5.70;;
7025;SDS011;3554;42.132;24.786;2023-05-10T05:22:11;5.30;;;5.00;;
7025;SDS011;3554;42.132;24.786;2023-05-10T05:24:38;6.37;;;5.70;;
7025;SDS011;3554;42.132;24.786;2023-05-10T05:27:06;5.83;;;5.43;;
7025;SDS011;3554;42.132;24.786;2023-05-10T05:29:33;6.17;;;5.77;;
7025;SDS011;3554;42.132;24.786;2023-05-10T05:32:00;6.27;;;5.53;;
7025;SDS011;3554;42.132;24.786;2023-05-10T05:34:27;8.10;;;5.90;;
7025;SDS011;3554;42.132;24.786;2023-05-10T05:36:54;7.30;;;6.50;;
7025;SDS011;3554;42.132;24.786;2023-05-10T05:39:20;5.80;;;5.30;;
7025;SDS011;3554;42.132;24.786;2023-05-10T05:41:47;5.90;;;5.40;;
7025;SDS011;3554;42.132;24.786;2023-05-10T05:44:15;8.67;;;5.77;;
7025;SDS011;3554;42.132;24.786;2023-05-10T05:46:42;6.47;;;5.80;;
7025;SDS011;3554;42.132;24.786;2023-05-10T05:49:09;8.90;;;6.20;;
7025;SDS011;3554;42.132;24.786;2023-05-10T05:51:36;11.37;;;6.43;;
7025;SDS011;3554;42.132;24.786;2023-05-10T05:54:02;5.67;;;5.17;;
7025;SDS011;3554;42.132;24.786;2023-05-10T05:56:29;6.37;;;5.83;;
7025;SDS011;3554;42.132;24.786;2023-05-10T05:58:56;7.17;;;6.40;;
7025;SDS011;3554;42.132;24.786;2023-05-10T06:01:24;6.67;;;5.53;;
7025;SDS011;3554;42.132;24.786;2023-05-10T06:03:51;5.53;;;5.13;;
7025;SDS011;3554;42.132;24.786;2023-05-10T06:06:18;7.00;;;6.30;;
7025;SDS011;3554;42.132;24.786;2023-05-10T06:08:45;5.50;;;5.20;;
7025;SDS011;3554;42.132;24.786;2023-05-10T06:11:11;6.93;;;5.63;;
7025;SDS011;3554;42.132;24.786;2023-05-10T06:13:38;4.97;;;4.67;;
7025;SDS011;3554;42.132;24.786;2023-05-10T06:16:05;6.70;;;6.10;;
7025;SDS011;3554;42.132;24.786;2023-05-10T06:18:33;5.97;;;5.57;;
7025;SDS011;3554;42.132;24.786;2023-05-10T06:21:01;6.53;;;3.97;;
7025;SDS011;3554;42.132;24.786;2023-05-10T06:23:28;5.87;;;5.40;;
7025;SDS011;3554;42.132;24.786;2023-05-10T06:25:54;5.20;;;4.90;;
7025;SDS011;3554;42.132;24.786;2023-05-10T06:28:21;6.43;;;4.77;;
7025;SDS011;3554;42.132;24.786;2023-05-10T06:30:48;5.53;;;4.63;;
7025;SDS011;3554;42.132;24.786;2023-05-10T06:33:15;8.27;;;4.70;;
7025;SDS011;3554;42.132;24.786;2023-05-10T06:35:43;4.57;;;4.27;;
7025;SDS011;3554;42.132;24.786;2023-05-10T06:38:10;5.60;;;5.03;;
7025;SDS011;3554;42.132;24.786;2023-05-10T06:40:36;5.13;;;4.73;;
7025;SDS011;3554;42.132;24.786;2023-05-10T06:43:07;12.13;;;4.57;;
7025;SDS011;3554;42.132;24.786;2023-05-10T06:45:33;5.93;;;4.60;;
7025;SDS011;3554;42.132;24.786;2023-05-10T06:48:00;5.20;;;4.80;;
7025;SDS011;3554;42.132;24.786;2023-05-10T06:50:27;7.40;;;4.37;;
7025;SDS011;3554;42.132;24.786;2023-05-10T06:52:55;5.50;;;4.63;;
7025;SDS011;3554;42.132;24.786;2023-05-10T06:55:22;6.20;;;3.70;;
7025;SDS011;3554;42.132;24.786;2023-05-10T06:57:49;5.43;;;5.03;;
7025;SDS011;3554;42.132;24.786;2023-05-10T07:00:16;5.37;;;4.50;;
7025;SDS011;3554;42.132;24.786;2023-05-10T07:02:43;10.63;;;5.17;;
7025;SDS011;3554;42.132;24.786;2023-05-10T07:05:10;6.57;;;4.67;;
7025;SDS011;3554;42.132;24.786;2023-05-10T07:07:37;5.00;;;4.50;;
7025;SDS011;3554;42.132;24.786;2023-05-10T07:10:06;7.20;;;4.40;;
7025;SDS011;3554;42.132;24.786;2023-05-10T07:12:33;4.43;;;4.13;;
7025;SDS011;3554;42.132;24.786;2023-05-10T07:15:00;4.80;;;4.40;;
7025;SDS011;3554;42.132;24.786;2023-05-10T07:17:27;5.47;;;4.97;;
7025;SDS011;3554;42.132;24.786;2023-05-10T07:19:53;7.97;;;4.43;;
7025;SDS011;3554;42.132;24.786;2023-05-10T07:22:20;4.67;;;4.33;;
7025;SDS011;3554;42.132;24.786;2023-05-10T07:24:47;9.20;;;5.23;;
7025;SDS011;3554;42.132;24.786;2023-05-10T07:27:15;4.23;;;3.93;;
7025;SDS011;3554;42.132;24.786;2023-05-10T07:29:42;4.73;;;4.30;;
7025;SDS011;3554;42.132;24.786;2023-05-10T07:32:09;4.50;;;4.20;;
7025;SDS011;3554;42.132;24.786;2023-05-10T07:34:35;4.10;;;3.80;;
7025;SDS011;3554;42.132;24.786;2023-05-10T07:37:02;4.57;;;4.17;;
7025;SDS011;3554;42.132;24.786;2023-05-10T07:39:29;4.37;;;4.10;;
7025;SDS011;3554;42.132;24.786;2023-05-10T07:41:56;6.13;;;4.07;;
7025;SDS011;3554;42.132;24.786;2023-05-10T07:44:24;9.97;;;3.97;;
7025;SDS011;3554;42.132;24.786;2023-05-10T07:46:51;7.97;;;3.97;;
7025;SDS011;3554;42.132;24.786;2023-05-10T07:49:17;4.83;;;4.20;;
7025;SDS011;3554;42.132;24.786;2023-05-10T07:51:44;4.63;;;4.40;;
7025;SDS011;3554;42.132;24.786;2023-05-10T07:54:11;4.43;;;4.20;;
7025;SDS011;3554;42.132;24.786;2023-05-10T07:56:38;4.90;;;4.50;;
7025;SDS011;3554;42.132;24.786;2023-05-10T07:59:09;6.67;;;4.30;;
7025;SDS011;3554;42.132;24.786;2023-05-10T08:01:37;4.47;;;3.47;;
7025;SDS011;3554;42.132;24.786;2023-05-10T08:04:04;4.40;;;3.97;;
7025;SDS011;3554;42.132;24.786;2023-05-10T08:06:31;4.53;;;4.13;;
7025;SDS011;3554;42.132;24.786;2023-05-10T08:08:58;4.77;;;4.40;;
7025;SDS011;3554;42.132;24.786;2023-05-10T08:11:24;4.27;;;4.07;;
7025;SDS011;3554;42.132;24.786;2023-05-10T08:13:52;3.97;;;3.67;;
7025;SDS011;3554;42.132;24.786;2023-05-10T08:16:19;3.53;;;3.30;;
7025;SDS011;3554;42.132;24.786;2023-05-10T08:18:48;3.90;;;3.53;;
7025;SDS011;3554;42.132;24.786;2023-05-10T08:21:15;4.10;;;3.80;;
7025;SDS011;3554;42.132;24.786;2023-05-10T08:23:42;4.87;;;3.60;;
7025;SDS011;3554;42.132;24.786;2023-05-10T08:26:09;3.73;;;3.50;;
7025;SDS011;3554;42.132;24.786;2023-05-10T08:28:36;3.63;;;3.33;;
7025;SDS011;3554;42.132;24.786;2023-05-10T08:31:04;4.50;;;3.67;;
7025;SDS011;3554;42.132;24.786;2023-05-10T08:33:31;3.57;;;3.37;;
7025;SDS011;3554;42.132;24.786;2023-05-10T08:35:59;4.13;;;3.83;;
7025;SDS011;3554;42.132;24.786;2023-05-10T08:38:26;3.90;;;3.53;;
7025;SDS011;3554;42.132;24.786;2023-05-10T08:40:53;4.07;;;3.87;;
7025;SDS011;3554;42.132;24.786;2023-05-10T08:43:23;3.97;;;3.77;;
7025;SDS011;3554;42.132;24.786;2023-05-10T08:45:53;4.20;;;3.93;;
7025;SDS011;3554;42.132;24.786;2023-05-10T08:48:21;4.33;;;4.13;;
7025;SDS011;3554;42.132;24.786;2023-05-10T08:50:49;4.40;;;4.10;;
7025;SDS011;3554;42.132;24.786;2023-05-10T08:53:20;4.13;;;3.93;;
7025;SDS011;3554;42.132;24.786;2023-05-10T08:55:50;4.93;;;4.63;;
7025;SDS011;3554;42.132;24.786;2023-05-10T08:58:17;4.73;;;4.30;;
7025;SDS011;3554;42.132;24.786;2023-05-10T09:00:45;4.90;;;4.60;;
7025;SDS011;3554;42.132;24.786;2023-05-10T09:03:13;4.00;;;3.80;;
7025;SDS011;3554;42.132;24.786;2023-05-10T09:05:40;4.00;;;3.80;;
7025;SDS011;3554;42.132;24.786;2023-05-10T09:08:07;5.23;;;4.00;;
7025;SDS011;3554;42.132;24.786;2023-05-10T09:10:36;3.90;;;3.60;;
7025;SDS011;3554;42.132;24.786;2023-05-10T09:13:04;3.40;;;3.23;;
7025;SDS011;3554;42.132;24.786;2023-05-10T09:15:31;4.77;;;4.10;;
7025;SDS011;3554;42.132;24.786;2023-05-10T09:17:58;5.00;;;3.70;;
7025;SDS011;3554;42.132;24.786;2023-05-10T09:20:27;4.40;;;3.80;;
7025;SDS011;3554;42.132;24.786;2023-05-10T09:22:54;3.97;;;3.67;;
7025;SDS011;3554;42.132;24.786;2023-05-10T09:25:21;7.23;;;3.90;;
7025;SDS011;3554;42.132;24.786;2023-05-10T09:27:49;3.87;;;3.67;;
7025;SDS011;3554;42.132;24.786;2023-05-10T09:30:16;6.13;;;4.03;;
7025;SDS011;3554;42.132;24.786;2023-05-10T09:32:49;4.17;;;3.50;;
7025;SDS011;3554;42.132;24.786;2023-05-10T09:35:16;3.87;;;3.57;;
7025;SDS011;3554;42.132;24.786;2023-05-10T09:37:46;4.30;;;3.87;;
7025;SDS011;3554;42.132;24.786;2023-05-10T09:40:15;3.60;;;3.40;;
7025;SDS011;3554;42.132;24.786;2023-05-10T09:42:52;3.80;;;3.50;;
7025;SDS011;3554;42.132;24.786;2023-05-10T09:45:20;3.20;;;3.00;;
7025;SDS011;3554;42.132;24.786;2023-05-10T09:47:47;3.73;;;3.53;;
7025;SDS011;3554;42.132;24.786;2023-05-10T09:50:14;3.57;;;3.37;;
7025;SDS011;3554;42.132;24.786;2023-05-10T09:52:48;5.27;;;3.63;;
7025;SDS011;3554;42.132;24.786;2023-05-10T09:55:17;3.60;;;3.30;;
7025;SDS011;3554;42.132;24.786;2023-05-10T09:57:45;3.53;;;3.43;;
7025;SDS011;3554;42.132;24.786;2023-05-10T10:00:17;4.30;;;4.00;;
7025;SDS011;3554;42.132;24.786;2023-05-10T10:02:47;6.37;;;3.80;;
7025;SDS011;3554;42.132;24.786;2023-05-10T10:05:14;3.67;;;3.47;;
7025;SDS011;3554;42.132;24.786;2023-05-10T10:07:41;3.50;;;3.17;;
7025;SDS011;3554;42.132;24.786;2023-05-10T10:10:09;4.90;;;3.83;;
7025;SDS011;3554;42.132;24.786;2023-05-10T10:12:38;4.90;;;3.50;;
7025;SDS011;3554;42.132;24.786;2023-05-10T10:15:06;3.67;;;3.47;;
7025;SDS011;3554;42.132;24.786;2023-05-10T10:17:36;3.60;;;3.30;;
7025;SDS011;3554;42.132;24.786;2023-05-10T10:20:05;3.90;;;3.70;;
7025;SDS011;3554;42.132;24.786;2023-05-10T10:22:33;3.53;;;3.33;;
7025;SDS011;3554;42.132;24.786;2023-05-10T10:25:00;6.17;;;4.43;;
7025;SDS011;3554;42.132;24.786;2023-05-10T10:27:28;3.93;;;3.63;;
7025;SDS011;3554;42.132;24.786;2023-05-10T10:30:09;6.47;;;4.13;;
7025;SDS011;3554;42.132;24.786;2023-05-10T10:32:49;4.07;;;3.87;;
7025;SDS011;3554;42.132;24.786;2023-05-10T10:35:26;4.07;;;3.87;;
7025;SDS011;3554;42.132;24.786;2023-05-10T10:37:55;4.80;;;4.30;;
7025;SDS011;3554;42.132;24.786;2023-05-10T10:40:23;3.60;;;3.50;;
7025;SDS011;3554;42.132;24.786;2023-05-10T10:42:53;3.90;;;3.53;;
7025;SDS011;3554;42.132;24.786;2023-05-10T10:45:20;4.10;;;3.90;;
7025;SDS011;3554;42.132;24.786;2023-05-10T10:47:50;3.80;;;3.50;;
7025;SDS011;3554;42.132;24.786;2023-05-10T10:50:43;4.67;;;4.33;;
7025;SDS011;3554;42.132;24.786;2023-05-10T10:53:11;4.40;;;4.10;;
7025;SDS011;3554;42.132;24.786;2023-05-10T10:55:44;8.83;;;3.97;;
7025;SDS011;3554;42.132;24.786;2023-05-10T10:58:15;4.27;;;3.97;;
7025;SDS011;3554;42.132;24.786;2023-05-10T11:01:08;3.80;;;3.63;;
7025;SDS011;3554;42.132;24.786;2023-05-10T11:03:38;4.83;;;4.53;;
7025;SDS011;3554;42.132;24.786;2023-05-10T11:06:04;4.83;;;4.43;;
7025;SDS011;3554;42.132;24.786;2023-05-10T11:08:32;4.17;;;3.97;;
7025;SDS011;3554;42.132;24.786;2023-05-10T11:11:04;4.73;;;4.53;;
7025;SDS011;3554;42.132;24.786;2023-05-10T11:13:39;3.60;;;3.30;;
7025;SDS011;3554;42.132;24.786;2023-05-10T11:16:13;3.43;;;3.33;;
7025;SDS011;3554;42.132;24.786;2023-05-10T11:18:56;5.33;;;4.30;;
7025;SDS011;3554;42.132;24.786;2023-05-10T11:21:26;5.53;;;4.80;;
7025;SDS011;3554;42.132;24.786;2023-05-10T11:23:54;4.47;;;4.07;;
7025;SDS011;3554;42.132;24.786;2023-05-10T11:26:22;3.53;;;3.30;;
7025;SDS011;3554;42.132;24.786;2023-05-10T11:28:51;4.33;;;3.93;;
7025;SDS011;3554;42.132;24.786;2023-05-10T11:31:20;4.50;;;4.20;;
7025;SDS011;3554;42.132;24.786;2023-05-10T11:33:48;4.30;;;4.10;;
7025;SDS011;3554;42.132;24.786;2023-05-10T11:36:18;3.43;;;3.20;;
7025;SDS011;3554;42.132;24.786;2023-05-10T11:38:46;4.07;;;3.77;;
7025;SDS011;3554;42.132;24.786;2023-05-10T11:41:14;4.37;;;4.07;;
7025;SDS011;3554;42.132;24.786;2023-05-10T11:43:42;3.70;;;3.50;;
7025;SDS011;3554;42.132;24.786;2023-05-10T11:46:12;3.97;;;3.67;;
7025;SDS011;3554;42.132;24.786;2023-05-10T11:48:39;3.53;;;3.33;;
7025;SDS011;3554;42.132;24.786;2023-05-10T11:51:07;4.50;;;4.20;;
7025;SDS011;3554;42.132;24.786;2023-05-10T11:53:35;4.37;;;3.97;;
7025;SDS011;3554;42.132;24.786;2023-05-10T11:56:03;4.77;;;4.23;;
7025;SDS011;3554;42.132;24.786;2023-05-10T11:58:30;5.10;;;4.70;;
7025;SDS011;3554;42.132;24.786;2023-05-10T12:00:57;4.60;;;4.40;;
7025;SDS011;3554;42.132;24.786;2023-05-10T12:03:25;3.90;;;3.70;;
7025;SDS011;3554;42.132;24.786;2023-05-10T12:05:52;4.77;;;4.47;;
7025;SDS011;3554;42.132;24.786;2023-05-10T12:08:20;4.27;;;3.97;;
7025;SDS011;3554;42.132;24.786;2023-05-10T12:10:49;4.53;;;4.23;;
7025;SDS011;3554;42.132;24.786;2023-05-10T12:13:16;4.10;;;3.80;;
7025;SDS011;3554;42.132;24.786;2023-05-10T12:15:43;4.93;;;4.73;;
7025;SDS011;3554;42.132;24.786;2023-05-10T12:18:11;5.27;;;4.87;;
7025;SDS011;3554;42.132;24.786;2023-05-10T12:20:38;4.73;;;4.37;;
7025;SDS011;3554;42.132;24.786;2023-05-10T12:23:07;5.57;;;5.03;;
7025;SDS011;3554;42.132;24.786;2023-05-10T12:25:35;5.70;;;5.40;;
7025;SDS011;3554;42.132;24.786;2023-05-10T12:28:05;5.43;;;5.13;;
7025;SDS011;3554;42.132;24.786;2023-05-10T12:30:35;5.53;;;5.23;;
7025;SDS011;3554;42.132;24.786;2023-05-10T12:33:07;6.33;;;5.93;;
7025;SDS011;3554;42.132;24.786;2023-05-10T12:35:43;5.10;;;4.90;;
7025;SDS011;3554;42.132;24.786;2023-05-10T12:38:27;5.40;;;5.10;;
7025;SDS011;3554;42.132;24.786;2023-05-10T12:40:56;6.20;;;5.80;;
7025;SDS011;3554;42.132;24.786;2023-05-10T12:43:24;6.97;;;6.47;;
7025;SDS011;3554;42.132;24.786;2023-05-10T12:45:51;6.63;;;6.03;;
7025;SDS011;3554;42.132;24.786;2023-05-10T12:48:18;5.40;;;5.10;;
7025;SDS011;3554;42.132;24.786;2023-05-10T12:50:45;7.17;;;6.57;;
7025;SDS011;3554;42.132;24.786;2023-05-10T12:53:12;7.00;;;6.60;;
7025;SDS011;3554;42.132;24.786;2023-05-10T12:55:40;5.50;;;5.20;;
7025;SDS011;3554;42.132;24.786;2023-05-10T12:58:07;6.17;;;5.87;;
7025;SDS011;3554;42.132;24.786;2023-05-10T13:00:35;5.47;;;5.17;;
7025;SDS011;3554;42.132;24.786;2023-05-10T13:03:03;7.37;;;6.10;;
7025;SDS011;3554;42.132;24.786;2023-05-10T13:05:30;5.27;;;5.00;;
7025;SDS011;3554;42.132;24.786;2023-05-10T13:07:57;4.93;;;4.73;;
7025;SDS011;3554;42.132;24.786;2023-05-10T13:10:23;5.03;;;4.80;;
7025;SDS011;3554;42.132;24.786;2023-05-10T13:12:50;4.90;;;4.60;;
7025;SDS011;3554;42.132;24.786;2023-05-10T13:15:17;4.60;;;4.40;;
7025;SDS011;3554;42.132;24.786;2023-05-10T13:17:46;4.73;;;4.53;;
7025;SDS011;3554;42.132;24.786;2023-05-10T13:20:12;5.20;;;5.00;;
7025;SDS011;3554;42.132;24.786;2023-05-10T13:22:39;5.83;;;5.57;;
7025;SDS011;3554;42.132;24.786;2023-05-10T13:25:07;6.57;;;6.00;;
7025;SDS011;3554;42.132;24.786;2023-05-10T13:27:34;5.10;;;4.77;;
7025;SDS011;3554;42.132;24.786;2023-05-10T13:30:01;4.93;;;4.70;;
7025;SDS011;3554;42.132;24.786;2023-05-10T13:32:28;5.20;;;4.90;;
7025;SDS011;3554;42.132;24.786;2023-05-10T13:34:56;6.07;;;5.67;;
7025;SDS011;3554;42.132;24.786;2023-05-10T13:37:23;5.97;;;5.67;;
7025;SDS011;3554;42.132;24.786;2023-05-10T13:39:50;5.57;;;5.33;;
7025;SDS011;3554;42.132;24.786;2023-05-10T13:42:16;6.93;;;6.53;;
7025;SDS011;3554;42.132;24.786;2023-05-10T13:44:43;6.10;;;5.60;;
7025;SDS011;3554;42.132;24.786;2023-05-10T13:47:10;5.23;;;4.83;;
7025;SDS011;3554;42.132;24.786;2023-05-10T13:49:37;8.13;;;7.43;;
7025;SDS011;3554;42.132;24.786;2023-05-10T13:52:05;7.67;;;7.07;;
7025;SDS011;3554;42.132;24.786;2023-05-10T13:54:32;6.97;;;6.47;;
7025;SDS011;3554;42.132;24.786;2023-05-10T13:56:59;5.37;;;5.07;;
7025;SDS011;3554;42.132;24.786;2023-05-10T13:59:26;8.00;;;7.50;;
7025;SDS011;3554;42.132;24.786;2023-05-10T14:01:53;5.10;;;4.90;;
7025;SDS011;3554;42.132;24.786;2023-05-10T14:04:19;5.47;;;5.07;;
7025;SDS011;3554;42.132;24.786;2023-05-10T14:06:46;4.63;;;4.33;;
7025;SDS011;3554;42.132;24.786;2023-05-10T14:09:14;6.13;;;5.83;;
7025;SDS011;3554;42.132;24.786;2023-05-10T14:11:41;5.53;;;5.13;;
7025;SDS011;3554;42.132;24.786;2023-05-10T14:14:10;5.90;;;5.40;;
7025;SDS011;3554;42.132;24.786;2023-05-10T14:16:36;6.73;;;6.23;;
7025;SDS011;3554;42.132;24.786;2023-05-10T14:19:03;5.50;;;5.30;;
7025;SDS011;3554;42.132;24.786;2023-05-10T14:21:30;5.13;;;4.93;;
7025;SDS011;3554;42.132;24.786;2023-05-10T14:23:57;5.80;;;5.50;;
7025;SDS011;3554;42.132;24.786;2023-05-10T14:26:25;5.50;;;5.10;;
7025;SDS011;3554;42.132;24.786;2023-05-10T14:28:52;6.20;;;5.90;;
7025;SDS011;3554;42.132;24.786;2023-05-10T14:31:19;5.20;;;5.00;;
7025;SDS011;3554;42.132;24.786;2023-05-10T14:33:45;5.70;;;5.30;;
7025;SDS011;3554;42.132;24.786;2023-05-10T14:36:12;5.30;;;5.00;;
7025;SDS011;3554;42.132;24.786;2023-05-10T14:38:39;5.33;;;4.93;;
7025;SDS011;3554;42.132;24.786;2023-05-10T14:41:06;6.00;;;5.57;;
7025;SDS011;3554;42.132;24.786;2023-05-10T14:43:34;3.67;;;3.57;;
7025;SDS011;3554;42.132;24.786;2023-05-10T14:46:01;4.40;;;4.20;;
7025;SDS011;3554;42.132;24.786;2023-05-10T14:48:28;4.70;;;4.43;;
7025;SDS011;3554;42.132;24.786;2023-05-10T14:50:55;5.67;;;5.20;;
7025;SDS011;3554;42.132;24.786;2023-05-10T14:53:22;5.20;;;4.73;;
7025;SDS011;3554;42.132;24.786;2023-05-10T14:55:49;5.73;;;5.23;;
7025;SDS011;3554;42.132;24.786;2023-05-10T14:58:15;4.53;;;4.33;;
7025;SDS011;3554;42.132;24.786;2023-05-10T15:00:44;4.10;;;3.80;;
7025;SDS011;3554;42.132;24.786;2023-05-10T15:03:11;4.17;;;3.93;;
7025;SDS011;3554;42.132;24.786;2023-05-10T15:05:37;4.40;;;4.10;;
7025;SDS011;3554;42.132;24.786;2023-05-10T15:08:04;5.17;;;4.90;;
7025;SDS011;3554;42.132;24.786;2023-05-10T15:10:31;5.03;;;4.83;;